createdAt,value
2024-03-16T00:02:10.145Z,13.10
2024-03-16T00:04:44.208Z,13.00
2024-03-16T00:07:16.257Z,13.00
2024-03-16T00:09:48.278Z,13.00
2024-03-16T00:12:20.239Z,13.00
2024-03-16T00:14:52.198Z,12.90
2024-03-16T00:17:24.265Z,12.80
2024-03-16T00:19:56.380Z,12.80
2024-03-16T00:22:28.359Z,12.80
2024-03-16T00:25:01.425Z,12.90
2024-03-16T00:27:37.223Z,12.90
2024-03-16T00:30:11.410Z,12.90
2024-03-16T00:32:43.452Z,13.00
2024-03-16T00:35:15.453Z,12.90
2024-03-16T00:37:48.156Z,13.00
2024-03-16T00:40:20.877Z,13.00
2024-03-16T00:42:53.235Z,13.00
2024-03-16T00:45:25.255Z,13.00
2024-03-16T00:47:57.589Z,13.00
2024-03-16T00:50:29.711Z,12.90
2024-03-16T00:53:01.699Z,12.90
2024-03-16T00:55:36.550Z,12.90
2024-03-16T00:58:08.780Z,12.90
2024-03-16T01:00:41.540Z,12.90
2024-03-16T01:03:14.014Z,12.90
2024-03-16T01:05:45.983Z,12.90
2024-03-16T01:08:17.895Z,12.80
2024-03-16T01:10:56.204Z,12.80
2024-03-16T01:13:28.542Z,12.80
2024-03-16T01:16:00.678Z,12.70
2024-03-16T01:18:32.780Z,12.80
2024-03-16T01:21:07.158Z,12.70
2024-03-16T01:23:39.574Z,12.60
2024-03-16T01:26:11.567Z,12.60
2024-03-16T01:28:43.585Z,12.50
2024-03-16T01:31:15.724Z,12.50
2024-03-16T01:33:47.876Z,12.50
2024-03-16T01:36:20.409Z,12.60
2024-03-16T01:38:52.395Z,12.50
2024-03-16T01:41:28.248Z,12.60
2024-03-16T01:44:17.857Z,12.50
2024-03-16T01:46:49.959Z,12.50
2024-03-16T01:49:22.934Z,12.50
2024-03-16T01:51:54.913Z,12.50
2024-03-16T01:54:26.956Z,12.60
2024-03-16T01:56:58.999Z,12.50
2024-03-16T01:59:30.974Z,12.40
2024-03-16T02:02:04.849Z,12.40
2024-03-16T02:04:36.837Z,12.40
2024-03-16T02:07:10.457Z,12.40
2024-03-16T02:09:42.667Z,12.30
2024-03-16T02:12:14.730Z,12.30
2024-03-16T02:14:46.681Z,12.30
2024-03-16T02:17:18.701Z,12.30
2024-03-16T02:19:50.713Z,12.30
2024-03-16T02:22:24.799Z,12.30
2024-03-16T02:24:57.797Z,12.30
2024-03-16T02:27:30.060Z,12.30
2024-03-16T02:30:02.084Z,12.30
2024-03-16T02:32:34.690Z,12.40
2024-03-16T02:35:10.068Z,12.40
2024-03-16T02:37:42.112Z,12.40
2024-03-16T02:40:14.631Z,12.40
2024-03-16T02:42:46.808Z,12.40
2024-03-16T02:45:18.880Z,12.30
2024-03-16T02:47:51.014Z,12.30
2024-03-16T02:50:23.078Z,12.30
2024-03-16T02:52:56.401Z,12.30
2024-03-16T02:55:28.379Z,12.30
2024-03-16T02:58:00.381Z,12.30
2024-03-16T03:00:32.461Z,12.30
2024-03-16T03:03:05.164Z,12.30
2024-03-16T03:05:37.221Z,12.30
2024-03-16T03:08:09.321Z,12.30
2024-03-16T03:10:42.744Z,12.20
2024-03-16T03:13:15.017Z,12.30
2024-03-16T03:15:50.129Z,12.40
2024-03-16T03:18:25.568Z,12.30
2024-03-16T03:20:57.632Z,12.30
2024-03-16T03:23:29.590Z,12.30
2024-03-16T03:26:01.574Z,12.30
2024-03-16T03:28:33.597Z,12.30
2024-03-16T03:31:07.666Z,12.30
2024-03-16T03:33:41.340Z,12.30
2024-03-16T03:36:13.565Z,12.30
2024-03-16T03:38:45.593Z,12.40
2024-03-16T03:41:19.711Z,12.40
2024-03-16T03:44:00.913Z,12.40
2024-03-16T03:46:51.892Z,12.40
2024-03-16T03:49:27.861Z,12.40
2024-03-16T03:52:00.599Z,12.50
2024-03-16T03:54:35.798Z,12.50
2024-03-16T03:57:08.001Z,12.50
2024-03-16T03:59:39.933Z,12.50
2024-03-16T04:02:11.874Z,12.50
2024-03-16T04:04:43.933Z,12.60
2024-03-16T04:07:15.909Z,12.70
2024-03-16T04:09:50.317Z,12.80
2024-03-16T04:12:22.403Z,12.60
2024-03-16T04:14:54.775Z,12.40
2024-03-16T04:17:26.828Z,12.40
2024-03-16T04:19:59.027Z,12.40
2024-03-16T04:22:31.037Z,12.40
2024-03-16T04:25:04.916Z,12.40
2024-03-16T04:27:37.585Z,12.30
2024-03-16T04:30:10.456Z,12.30
2024-03-16T04:32:42.513Z,12.40
2024-03-16T04:35:14.625Z,12.40
2024-03-16T04:37:46.556Z,12.30
2024-03-16T04:40:18.616Z,12.30
2024-03-16T04:42:51.312Z,12.20
2024-03-16T04:45:23.816Z,12.20
2024-03-16T04:47:55.760Z,12.20
2024-03-16T04:50:27.788Z,12.30
2024-03-16T04:52:59.743Z,12.20
2024-03-16T04:55:32.238Z,12.30
2024-03-16T04:58:05.875Z,12.20
2024-03-16T05:00:37.889Z,12.20
2024-03-16T05:03:11.102Z,12.20
2024-03-16T05:05:43.105Z,12.30
2024-03-16T05:08:15.069Z,12.30
2024-03-16T05:10:53.595Z,12.30
2024-03-16T05:13:29.629Z,12.30
2024-03-16T05:16:09.089Z,12.20
2024-03-16T05:18:41.396Z,12.20
2024-03-16T05:21:13.876Z,12.10
2024-03-16T05:23:46.896Z,12.10
2024-03-16T05:26:18.929Z,12.10
2024-03-16T05:28:51.285Z,12.10
2024-03-16T05:31:23.653Z,12.20
2024-03-16T05:33:55.879Z,12.30
2024-03-16T05:36:29.915Z,12.20
2024-03-16T05:39:02.021Z,12.10
2024-03-16T05:41:33.959Z,12.00
2024-03-16T05:44:05.978Z,12.00
2024-03-16T05:46:37.927Z,12.10
2024-03-16T05:49:10.234Z,12.20
2024-03-16T05:51:42.627Z,12.30
2024-03-16T05:54:14.854Z,12.20
2024-03-16T05:56:47.190Z,12.20
2024-03-16T05:59:19.082Z,12.10
2024-03-16T06:01:51.039Z,12.00
2024-03-16T06:04:23.034Z,12.00
2024-03-16T06:06:55.015Z,12.00
2024-03-16T06:09:30.129Z,12.00
2024-03-16T06:12:02.250Z,12.00
2024-03-16T06:14:35.324Z,12.00
2024-03-16T06:17:07.766Z,12.00
2024-03-16T06:19:40.156Z,12.00
2024-03-16T06:22:13.461Z,12.00
2024-03-16T06:24:48.472Z,12.00
2024-03-16T06:27:22.762Z,12.00
2024-03-16T06:29:56.543Z,12.10
2024-03-16T06:32:29.889Z,12.10
2024-03-16T06:35:01.898Z,12.20
2024-03-16T06:37:33.975Z,12.20
2024-03-16T06:40:06.829Z,12.20
2024-03-16T06:42:38.875Z,12.30
2024-03-16T06:45:10.874Z,12.40
2024-03-16T06:47:42.939Z,12.50
2024-03-16T06:50:15.230Z,12.70
2024-03-16T06:52:47.211Z,12.70
2024-03-16T06:55:20.228Z,12.70
2024-03-16T06:57:52.457Z,12.80
2024-03-16T07:00:25.575Z,12.80
2024-03-16T07:02:57.629Z,12.80
2024-03-16T07:05:29.762Z,12.80
2024-03-16T07:08:01.788Z,12.80
2024-03-16T07:10:33.819Z,12.80
2024-03-16T07:13:07.005Z,12.80
2024-03-16T07:15:40.542Z,12.90
2024-03-16T07:18:13.407Z,13.00
2024-03-16T07:20:47.679Z,13.10
2024-03-16T07:23:19.726Z,13.30
2024-03-16T07:25:51.707Z,13.40
2024-03-16T07:28:24.281Z,13.40
2024-03-16T07:30:59.696Z,13.40
2024-03-16T07:33:31.874Z,13.50
2024-03-16T07:36:05.264Z,13.50
2024-03-16T07:38:37.300Z,13.60
2024-03-16T07:41:10.082Z,13.70
2024-03-16T07:43:44.974Z,14.10
2024-03-16T07:46:17.188Z,14.30
2024-03-16T07:48:50.324Z,14.30
2024-03-16T07:51:26.257Z,14.30
2024-03-16T07:53:59.278Z,14.20
2024-03-16T07:56:31.215Z,14.20
2024-03-16T07:59:03.310Z,14.30
2024-03-16T08:01:35.457Z,14.30
2024-03-16T08:04:07.515Z,14.40
2024-03-16T08:06:39.538Z,14.40
2024-03-16T08:09:13.026Z,14.40
2024-03-16T08:11:45.128Z,14.50
2024-03-16T08:14:17.797Z,14.60
2024-03-16T08:16:51.657Z,14.90
2024-03-16T08:19:23.719Z,15.20
2024-03-16T08:21:55.691Z,15.30
2024-03-16T08:24:27.806Z,15.50
2024-03-16T08:26:59.785Z,15.60
2024-03-16T08:29:31.720Z,15.60
2024-03-16T08:32:03.913Z,15.50
2024-03-16T08:34:36.101Z,15.50
2024-03-16T08:37:08.173Z,15.60
2024-03-16T08:39:40.507Z,15.80
2024-03-16T08:42:14.136Z,15.90
2024-03-16T08:44:46.265Z,16.20
2024-03-16T08:47:18.260Z,16.40
2024-03-16T08:49:50.282Z,16.50
2024-03-16T08:52:23.836Z,16.60
2024-03-16T08:54:57.202Z,16.70
2024-03-16T08:57:29.267Z,16.70
2024-03-16T09:00:01.315Z,16.90
2024-03-16T09:02:33.255Z,16.90
2024-03-16T09:05:09.447Z,16.90
2024-03-16T09:07:41.383Z,16.90
2024-03-16T09:10:13.776Z,17.00
2024-03-16T09:12:48.227Z,17.20
2024-03-16T09:15:21.061Z,17.30
2024-03-16T09:17:53.022Z,17.40
2024-03-16T09:20:25.051Z,17.40
2024-03-16T09:22:58.932Z,17.50
2024-03-16T09:25:31.705Z,17.50
2024-03-16T09:28:03.950Z,17.50
2024-03-16T09:30:36.305Z,17.50
2024-03-16T09:33:08.322Z,17.40
2024-03-16T09:35:40.368Z,17.30
2024-03-16T09:38:13.428Z,17.40
2024-03-16T09:40:53.180Z,17.60
